sensor_id;sensor_type;location;lat;lon;timestamp;temperature;humidity
19999;DHT22;10160;50.926;4.374;2023-05-10T00:01:07;13.70;99.90
19999;DHT22;10160;50.926;4.374;2023-05-10T00:03:33;13.60;99.90
19999;DHT22;10160;50.926;4.374;2023-05-10T00:05:59;13.60;99.90
19999;DHT22;10160;50.926;4.374;2023-05-10T00:08:24;13.70;99.90
19999;DHT22;10160;50.926;4.374;2023-05-10T00:10:50;13.60;99.90
19999;DHT22;10160;50.926;4.374;2023-05-10T00:13:16;13.70;99.90
19999;DHT22;10160;50.926;4.374;2023-05-10T00:15:41;13.70;99.90
19999;DHT22;10160;50.926;4.374;2023-05-10T00:18:07;13.70;99.90
19999;DHT22;10160;50.926;4.374;2023-05-10T00:20:33;13.70;99.90
19999;DHT22;10160;50.926;4.374;2023-05-10T00:22:59;13.70;99.90
19999;DHT22;10160;50.926;4.374;2023-05-10T00:25:24;13.70;99.90
19999;DHT22;10160;50.926;4.374;2023-05-10T00:27:50;13.60;99.90
19999;DHT22;10160;50.926;4.374;2023-05-10T00:30:16;13.60;99.90
19999;DHT22;10160;50.926;4.374;2023-05-10T00:32:41;13.50;99.90
19999;DHT22;10160;50.926;4.374;2023-05-10T00:35:08;13.60;99.90
19999;DHT22;10160;50.926;4.374;2023-05-10T00:37:34;13.70;99.90
19999;DHT22;10160;50.926;4.374;2023-05-10T00:40:00;13.70;99.90
19999;DHT22;10160;50.926;4.374;2023-05-10T00:42:25;13.70;99.90
19999;DHT22;10160;50.926;4.374;2023-05-10T00:44:51;13.80;99.90
19999;DHT22;10160;50.926;4.374;2023-05-10T00:47:17;13.80;99.90
19999;DHT22;10160;50.926;4.374;2023-05-10T00:49:43;13.80;99.90
19999;DHT22;10160;50.926;4.374;2023-05-10T00:52:09;13.80;99.90
19999;DHT22;10160;50.926;4.374;2023-05-10T00:54:35;13.80;99.90
19999;DHT22;10160;50.926;4.374;2023-05-10T00:57:01;13.70;99.90
19999;DHT22;10160;50.926;4.374;2023-05-10T00:59:28;13.60;99.90
19999;DHT22;10160;50.926;4.374;2023-05-10T01:01:54;13.60;99.90
19999;DHT22;10160;50.926;4.374;2023-05-10T01:04:19;13.60;99.90
19999;DHT22;10160;50.926;4.374;2023-05-10T01:06:51;13.60;99.90
19999;DHT22;10160;50.926;4.374;2023-05-10T01:09:17;13.70;99.90
19999;DHT22;10160;50.926;4.374;2023-05-10T01:11:43;13.80;99.90
19999;DHT22;10160;50.926;4.374;2023-05-10T01:14:10;13.80;99.90
19999;DHT22;10160;50.926;4.374;2023-05-10T01:16:38;13.90;99.90
19999;DHT22;10160;50.926;4.374;2023-05-10T01:19:10;13.80;99.90
19999;DHT22;10160;50.926;4.374;2023-05-10T01:32:59;13.70;99.90
19999;DHT22;10160;50.926;4.374;2023-05-10T01:35:45;13.70;99.90
19999;DHT22;10160;50.926;4.374;2023-05-10T01:38:20;13.60;99.90
19999;DHT22;10160;50.926;4.374;2023-05-10T01:43:28;13.70;99.90
19999;DHT22;10160;50.926;4.374;2023-05-10T01:46:07;13.70;99.90
19999;DHT22;10160;50.926;4.374;2023-05-10T01:48:46;13.80;99.90
19999;DHT22;10160;50.926;4.374;2023-05-10T01:51:19;13.70;99.90
19999;DHT22;10160;50.926;4.374;2023-05-10T01:53:48;13.80;99.90
19999;DHT22;10160;50.926;4.374;2023-05-10T01:56:14;13.60;99.90
19999;DHT22;10160;50.926;4.374;2023-05-10T01:58:43;13.60;99.90
19999;DHT22;10160;50.926;4.374;2023-05-10T02:01:11;13.50;99.90
19999;DHT22;10160;50.926;4.374;2023-05-10T02:03:38;13.60;99.90
19999;DHT22;10160;50.926;4.374;2023-05-10T02:06:05;13.70;99.90
19999;DHT22;10160;50.926;4.374;2023-05-10T02:08:33;13.70;99.90
19999;DHT22;10160;50.926;4.374;2023-05-10T02:11:01;13.90;99.90
19999;DHT22;10160;50.926;4.374;2023-05-10T02:13:27;13.70;99.90
19999;DHT22;10160;50.926;4.374;2023-05-10T02:15:55;13.70;99.90
19999;DHT22;10160;50.926;4.374;2023-05-10T02:18:24;13.50;99.90
19999;DHT22;10160;50.926;4.374;2023-05-10T02:20:52;13.60;99.90
19999;DHT22;10160;50.926;4.374;2023-05-10T02:23:20;13.50;99.90
19999;DHT22;10160;50.926;4.374;2023-05-10T02:25:48;13.50;99.90
19999;DHT22;10160;50.926;4.374;2023-05-10T02:28:15;13.70;99.90
19999;DHT22;10160;50.926;4.374;2023-05-10T02:30:43;13.70;99.90
19999;DHT22;10160;50.926;4.374;2023-05-10T02:33:09;13.70;99.90
19999;DHT22;10160;50.926;4.374;2023-05-10T02:35:36;13.80;99.90
19999;DHT22;10160;50.926;4.374;2023-05-10T02:38:03;13.80;99.90
19999;DHT22;10160;50.926;4.374;2023-05-10T02:40:30;13.80;99.90
19999;DHT22;10160;50.926;4.374;2023-05-10T02:42:57;13.90;99.90
19999;DHT22;10160;50.926;4.374;2023-05-10T02:45:27;13.90;99.90
19999;DHT22;10160;50.926;4.374;2023-05-10T02:47:54;13.90;99.90
19999;DHT22;10160;50.926;4.374;2023-05-10T02:50:20;13.80;99.90
19999;DHT22;10160;50.926;4.374;2023-05-10T02:52:47;13.80;99.90
19999;DHT22;10160;50.926;4.374;2023-05-10T02:55:16;13.80;99.90
19999;DHT22;10160;50.926;4.374;2023-05-10T02:58:01;13.80;99.90
19999;DHT22;10160;50.926;4.374;2023-05-10T03:00:27;14.00;99.90
19999;DHT22;10160;50.926;4.374;2023-05-10T03:02:53;14.00;99.90
19999;DHT22;10160;50.926;4.374;2023-05-10T03:05:19;14.00;99.90
19999;DHT22;10160;50.926;4.374;2023-05-10T03:07:46;14.10;99.90
19999;DHT22;10160;50.926;4.374;2023-05-10T03:10:12;14.00;99.90
19999;DHT22;10160;50.926;4.374;2023-05-10T03:16:03;13.90;99.90
19999;DHT22;10160;50.926;4.374;2023-05-10T03:18:42;14.00;99.90
19999;DHT22;10160;50.926;4.374;2023-05-10T03:21:11;13.90;99.90
19999;DHT22;10160;50.926;4.374;2023-05-10T03:23:41;14.00;99.90
19999;DHT22;10160;50.926;4.374;2023-05-10T03:26:08;14.10;99.90
19999;DHT22;10160;50.926;4.374;2023-05-10T03:28:35;14.10;99.90
19999;DHT22;10160;50.926;4.374;2023-05-10T03:31:04;14.00;99.90
19999;DHT22;10160;50.926;4.374;2023-05-10T03:33:31;13.80;99.90
19999;DHT22;10160;50.926;4.374;2023-05-10T03:35:57;13.80;99.90
19999;DHT22;10160;50.926;4.374;2023-05-10T03:38:23;13.80;99.90
19999;DHT22;10160;50.926;4.374;2023-05-10T03:40:49;13.80;99.90
19999;DHT22;10160;50.926;4.374;2023-05-10T03:43:14;13.90;99.90
19999;DHT22;10160;50.926;4.374;2023-05-10T03:45:40;13.80;99.90
19999;DHT22;10160;50.926;4.374;2023-05-10T03:48:06;13.90;99.90
19999;DHT22;10160;50.926;4.374;2023-05-10T03:50:31;13.80;99.90
19999;DHT22;10160;50.926;4.374;2023-05-10T03:52:57;13.90;99.90
19999;DHT22;10160;50.926;4.374;2023-05-10T03:55:23;13.80;99.90
19999;DHT22;10160;50.926;4.374;2023-05-10T03:57:49;13.80;99.90
19999;DHT22;10160;50.926;4.374;2023-05-10T04:00:19;13.80;99.90
19999;DHT22;10160;50.926;4.374;2023-05-10T04:02:45;13.80;99.90
19999;DHT22;10160;50.926;4.374;2023-05-10T04:05:10;13.70;99.90
19999;DHT22;10160;50.926;4.374;2023-05-10T04:07:36;13.70;99.90
19999;DHT22;10160;50.926;4.374;2023-05-10T04:10:02;13.70;99.90
19999;DHT22;10160;50.926;4.374;2023-05-10T04:12:27;13.70;99.90
19999;DHT22;10160;50.926;4.374;2023-05-10T04:14:53;13.60;99.90
19999;DHT22;10160;50.926;4.374;2023-05-10T04:17:19;13.70;99.90
19999;DHT22;10160;50.926;4.374;2023-05-10T04:19:44;13.90;99.90
19999;DHT22;10160;50.926;4.374;2023-05-10T04:22:10;13.90;99.90
19999;DHT22;10160;50.926;4.374;2023-05-10T04:24:36;13.80;99.90
19999;DHT22;10160;50.926;4.374;2023-05-10T04:27:01;13.90;99.90
19999;DHT22;10160;50.926;4.374;2023-05-10T04:29:27;13.90;99.90
19999;DHT22;10160;50.926;4.374;2023-05-10T04:31:53;14.10;99.90
19999;DHT22;10160;50.926;4.374;2023-05-10T04:34:20;14.10;99.90
19999;DHT22;10160;50.926;4.374;2023-05-10T04:36:46;14.20;99.90
19999;DHT22;10160;50.926;4.374;2023-05-10T04:39:12;14.10;99.90
19999;DHT22;10160;50.926;4.374;2023-05-10T04:41:39;14.00;99.90
19999;DHT22;10160;50.926;4.374;2023-05-10T04:44:04;14.10;99.90
19999;DHT22;10160;50.926;4.374;2023-05-10T04:46:30;14.10;99.90
19999;DHT22;10160;50.926;4.374;2023-05-10T04:48:55;14.20;99.90
19999;DHT22;10160;50.926;4.374;2023-05-10T04:51:21;14.10;99.90
19999;DHT22;10160;50.926;4.374;2023-05-10T04:53:47;14.10;99.90
19999;DHT22;10160;50.926;4.374;2023-05-10T04:56:12;14.20;99.90
19999;DHT22;10160;50.926;4.374;2023-05-10T04:58:38;14.20;99.90
19999;DHT22;10160;50.926;4.374;2023-05-10T05:01:09;14.20;99.90
19999;DHT22;10160;50.926;4.374;2023-05-10T05:03:36;14.20;99.90
19999;DHT22;10160;50.926;4.374;2023-05-10T05:06:02;14.00;99.90
19999;DHT22;10160;50.926;4.374;2023-05-10T05:08:28;14.40;99.90
19999;DHT22;10160;50.926;4.374;2023-05-10T05:10:54;14.40;99.90
19999;DHT22;10160;50.926;4.374;2023-05-10T05:13:20;14.40;99.90
19999;DHT22;10160;50.926;4.374;2023-05-10T05:15:45;14.30;99.90
19999;DHT22;10160;50.926;4.374;2023-05-10T05:18:11;14.00;99.90
19999;DHT22;10160;50.926;4.374;2023-05-10T05:20:37;14.00;99.90
19999;DHT22;10160;50.926;4.374;2023-05-10T05:23:03;14.10;99.90
19999;DHT22;10160;50.926;4.374;2023-05-10T05:25:28;14.10;99.90
19999;DHT22;10160;50.926;4.374;2023-05-10T05:27:54;14.10;99.90
19999;DHT22;10160;50.926;4.374;2023-05-10T05:30:19;14.20;99.90
19999;DHT22;10160;50.926;4.374;2023-05-10T05:32:45;14.20;99.90
19999;DHT22;10160;50.926;4.374;2023-05-10T05:35:12;14.20;99.90
19999;DHT22;10160;50.926;4.374;2023-05-10T05:37:38;14.20;99.90
19999;DHT22;10160;50.926;4.374;2023-05-10T05:40:04;14.30;99.90
19999;DHT22;10160;50.926;4.374;2023-05-10T05:42:31;14.40;99.90
19999;DHT22;10160;50.926;4.374;2023-05-10T05:44:56;14.50;99.90
19999;DHT22;10160;50.926;4.374;2023-05-10T05:47:22;14.50;99.90
19999;DHT22;10160;50.926;4.374;2023-05-10T05:49:48;14.60;99.90
19999;DHT22;10160;50.926;4.374;2023-05-10T05:52:14;14.60;99.90
19999;DHT22;10160;50.926;4.374;2023-05-10T05:54:39;14.50;99.90
19999;DHT22;10160;50.926;4.374;2023-05-10T05:57:05;14.50;99.90
19999;DHT22;10160;50.926;4.374;2023-05-10T05:59:31;14.50;99.90
19999;DHT22;10160;50.926;4.374;2023-05-10T06:01:56;14.60;99.90
19999;DHT22;10160;50.926;4.374;2023-05-10T06:04:22;14.80;99.90
19999;DHT22;10160;50.926;4.374;2023-05-10T06:06:48;14.80;99.90
19999;DHT22;10160;50.926;4.374;2023-05-10T06:09:13;14.70;99.90
19999;DHT22;10160;50.926;4.374;2023-05-10T06:11:39;14.80;99.90
19999;DHT22;10160;50.926;4.374;2023-05-10T06:14:05;14.80;99.90
19999;DHT22;10160;50.926;4.374;2023-05-10T06:16:32;14.70;99.90
19999;DHT22;10160;50.926;4.374;2023-05-10T06:18:58;14.90;99.90
19999;DHT22;10160;50.926;4.374;2023-05-10T06:21:23;14.90;99.90
19999;DHT22;10160;50.926;4.374;2023-05-10T06:23:49;14.90;99.90
19999;DHT22;10160;50.926;4.374;2023-05-10T06:26:15;15.00;99.90
19999;DHT22;10160;50.926;4.374;2023-05-10T06:28:41;14.90;99.90
19999;DHT22;10160;50.926;4.374;2023-05-10T06:31:06;14.90;99.90
19999;DHT22;10160;50.926;4.374;2023-05-10T06:33:33;14.90;99.90
19999;DHT22;10160;50.926;4.374;2023-05-10T06:35:58;14.90;99.90
19999;DHT22;10160;50.926;4.374;2023-05-10T06:38:24;14.90;99.90
19999;DHT22;10160;50.926;4.374;2023-05-10T06:40:50;14.90;99.90
19999;DHT22;10160;50.926;4.374;2023-05-10T06:43:16;14.90;99.90
19999;DHT22;10160;50.926;4.374;2023-05-10T06:45:42;14.60;99.90
19999;DHT22;10160;50.926;4.374;2023-05-10T06:48:08;14.50;99.90
19999;DHT22;10160;50.926;4.374;2023-05-10T06:50:33;14.40;99.90
19999;DHT22;10160;50.926;4.374;2023-05-10T06:53:00;14.50;99.90
19999;DHT22;10160;50.926;4.374;2023-05-10T06:55:26;14.40;99.90
19999;DHT22;10160;50.926;4.374;2023-05-10T06:57:52;14.30;99.90
19999;DHT22;10160;50.926;4.374;2023-05-10T07:00:18;14.30;99.90
19999;DHT22;10160;50.926;4.374;2023-05-10T07:02:44;14.10;99.90
19999;DHT22;10160;50.926;4.374;2023-05-10T07:05:10;14.10;99.90
19999;DHT22;10160;50.926;4.374;2023-05-10T07:07:37;14.20;99.90
19999;DHT22;10160;50.926;4.374;2023-05-10T07:10:03;14.30;99.90
19999;DHT22;10160;50.926;4.374;2023-05-10T07:12:29;14.30;99.90
19999;DHT22;10160;50.926;4.374;2023-05-10T07:14:54;14.30;99.90
19999;DHT22;10160;50.926;4.374;2023-05-10T07:17:20;14.50;99.90
19999;DHT22;10160;50.926;4.374;2023-05-10T07:19:46;14.50;99.90
19999;DHT22;10160;50.926;4.374;2023-05-10T07:22:12;14.50;99.90
19999;DHT22;10160;50.926;4.374;2023-05-10T07:24:37;14.40;99.90
19999;DHT22;10160;50.926;4.374;2023-05-10T07:27:03;14.40;99.90
19999;DHT22;10160;50.926;4.374;2023-05-10T07:29:29;14.10;99.90
19999;DHT22;10160;50.926;4.374;2023-05-10T07:31:55;14.10;99.90
19999;DHT22;10160;50.926;4.374;2023-05-10T07:34:21;14.00;99.90
19999;DHT22;10160;50.926;4.374;2023-05-10T07:36:46;13.90;99.90
19999;DHT22;10160;50.926;4.374;2023-05-10T07:39:13;13.90;99.90
19999;DHT22;10160;50.926;4.374;2023-05-10T07:41:38;14.00;99.90
19999;DHT22;10160;50.926;4.374;2023-05-10T07:44:05;14.20;99.90
19999;DHT22;10160;50.926;4.374;2023-05-10T07:46:31;14.30;99.90
19999;DHT22;10160;50.926;4.374;2023-05-10T07:48:56;14.30;99.90
19999;DHT22;10160;50.926;4.374;2023-05-10T07:51:22;14.60;99.90
19999;DHT22;10160;50.926;4.374;2023-05-10T07:53:49;14.70;99.90
19999;DHT22;10160;50.926;4.374;2023-05-10T07:58:46;14.80;99.90
19999;DHT22;10160;50.926;4.374;2023-05-10T08:01:13;14.70;99.90
19999;DHT22;10160;50.926;4.374;2023-05-10T08:03:39;14.90;99.90
19999;DHT22;10160;50.926;4.374;2023-05-10T08:06:05;14.90;99.90
19999;DHT22;10160;50.926;4.374;2023-05-10T08:08:31;14.70;99.90
19999;DHT22;10160;50.926;4.374;2023-05-10T08:10:57;14.60;99.90
19999;DHT22;10160;50.926;4.374;2023-05-10T08:13:22;14.40;99.90
19999;DHT22;10160;50.926;4.374;2023-05-10T08:15:48;14.30;99.90
19999;DHT22;10160;50.926;4.374;2023-05-10T08:18:14;14.20;99.90
19999;DHT22;10160;50.926;4.374;2023-05-10T08:20:39;14.00;99.90
19999;DHT22;10160;50.926;4.374;2023-05-10T08:23:05;14.00;99.90
19999;DHT22;10160;50.926;4.374;2023-05-10T08:25:31;14.10;99.90
19999;DHT22;10160;50.926;4.374;2023-05-10T08:27:57;14.00;99.90
19999;DHT22;10160;50.926;4.374;2023-05-10T08:30:23;13.80;99.90
19999;DHT22;10160;50.926;4.374;2023-05-10T08:32:48;13.80;99.90
19999;DHT22;10160;50.926;4.374;2023-05-10T08:35:15;13.80;99.90
19999;DHT22;10160;50.926;4.374;2023-05-10T08:37:40;13.70;99.90
19999;DHT22;10160;50.926;4.374;2023-05-10T08:40:06;13.70;99.90
19999;DHT22;10160;50.926;4.374;2023-05-10T08:42:36;13.80;99.90
19999;DHT22;10160;50.926;4.374;2023-05-10T08:45:07;13.80;99.90
19999;DHT22;10160;50.926;4.374;2023-05-10T08:47:35;13.90;99.90
19999;DHT22;10160;50.926;4.374;2023-05-10T08:50:02;14.00;99.90
19999;DHT22;10160;50.926;4.374;2023-05-10T08:52:30;14.10;99.90
19999;DHT22;10160;50.926;4.374;2023-05-10T08:54:57;14.10;99.90
19999;DHT22;10160;50.926;4.374;2023-05-10T08:57:22;14.00;99.90
19999;DHT22;10160;50.926;4.374;2023-05-10T08:59:48;13.90;99.90
19999;DHT22;10160;50.926;4.374;2023-05-10T09:02:14;13.90;99.90
19999;DHT22;10160;50.926;4.374;2023-05-10T09:04:39;14.00;99.90
19999;DHT22;10160;50.926;4.374;2023-05-10T09:07:06;14.00;99.90
19999;DHT22;10160;50.926;4.374;2023-05-10T09:09:32;14.00;99.90
19999;DHT22;10160;50.926;4.374;2023-05-10T09:11:58;14.00;99.90
19999;DHT22;10160;50.926;4.374;2023-05-10T09:14:25;14.00;99.90
19999;DHT22;10160;50.926;4.374;2023-05-10T09:16:52;14.10;99.90
19999;DHT22;10160;50.926;4.374;2023-05-10T09:19:19;14.00;99.90
19999;DHT22;10160;50.926;4.374;2023-05-10T09:21:45;14.10;99.90
19999;DHT22;10160;50.926;4.374;2023-05-10T09:24:11;14.30;99.90
19999;DHT22;10160;50.926;4.374;2023-05-10T09:26:46;14.40;99.90
19999;DHT22;10160;50.926;4.374;2023-05-10T09:29:15;14.30;99.90
19999;DHT22;10160;50.926;4.374;2023-05-10T09:31:49;14.30;99.90
19999;DHT22;10160;50.926;4.374;2023-05-10T09:34:30;14.50;99.90
19999;DHT22;10160;50.926;4.374;2023-05-10T09:37:00;14.40;99.90
19999;DHT22;10160;50.926;4.374;2023-05-10T09:39:34;14.40;99.90
19999;DHT22;10160;50.926;4.374;2023-05-10T09:42:03;14.40;99.90
19999;DHT22;10160;50.926;4.374;2023-05-10T09:44:30;14.40;99.90
19999;DHT22;10160;50.926;4.374;2023-05-10T09:46:56;14.40;99.90
19999;DHT22;10160;50.926;4.374;2023-05-10T09:49:22;14.30;99.90
19999;DHT22;10160;50.926;4.374;2023-05-10T09:52:03;14.20;99.90
19999;DHT22;10160;50.926;4.374;2023-05-10T09:54:29;14.30;99.90
19999;DHT22;10160;50.926;4.374;2023-05-10T09:56:55;14.10;99.90
19999;DHT22;10160;50.926;4.374;2023-05-10T09:59:21;14.30;99.90
19999;DHT22;10160;50.926;4.374;2023-05-10T10:01:50;14.20;99.90
19999;DHT22;10160;50.926;4.374;2023-05-10T10:04:17;14.20;99.90
19999;DHT22;10160;50.926;4.374;2023-05-10T10:06:43;14.20;99.90
19999;DHT22;10160;50.926;4.374;2023-05-10T10:09:09;14.30;99.90
19999;DHT22;10160;50.926;4.374;2023-05-10T10:11:36;14.40;99.90
19999;DHT22;10160;50.926;4.374;2023-05-10T10:14:02;14.30;99.90
19999;DHT22;10160;50.926;4.374;2023-05-10T10:16:29;14.20;99.90
19999;DHT22;10160;50.926;4.374;2023-05-10T10:18:56;14.20;99.90
19999;DHT22;10160;50.926;4.374;2023-05-10T10:21:23;14.10;99.90
19999;DHT22;10160;50.926;4.374;2023-05-10T10:23:49;14.10;99.90
19999;DHT22;10160;50.926;4.374;2023-05-10T10:26:16;14.30;99.90
19999;DHT22;10160;50.926;4.374;2023-05-10T10:31:57;14.10;99.90
19999;DHT22;10160;50.926;4.374;2023-05-10T10:34:29;14.10;99.90
19999;DHT22;10160;50.926;4.374;2023-05-10T10:36:56;14.10;99.90
19999;DHT22;10160;50.926;4.374;2023-05-10T10:39:23;14.20;99.90
19999;DHT22;10160;50.926;4.374;2023-05-10T10:41:57;14.40;99.90
19999;DHT22;10160;50.926;4.374;2023-05-10T10:47:05;14.20;99.90
19999;DHT22;10160;50.926;4.374;2023-05-10T10:57:53;14.00;99.90
19999;DHT22;10160;50.926;4.374;2023-05-10T11:02:56;14.10;99.90
19999;DHT22;10160;50.926;4.374;2023-05-10T11:05:45;14.20;99.90
19999;DHT22;10160;50.926;4.374;2023-05-10T11:08:18;14.30;99.90
19999;DHT22;10160;50.926;4.374;2023-05-10T11:11:03;14.60;99.90
19999;DHT22;10160;50.926;4.374;2023-05-10T11:13:41;14.60;99.90
19999;DHT22;10160;50.926;4.374;2023-05-10T11:16:15;14.50;99.90
19999;DHT22;10160;50.926;4.374;2023-05-10T11:18:57;14.40;99.90
19999;DHT22;10160;50.926;4.374;2023-05-10T11:21:23;14.50;99.90
19999;DHT22;10160;50.926;4.374;2023-05-10T11:23:51;14.70;99.90
19999;DHT22;10160;50.926;4.374;2023-05-10T11:26:17;14.80;99.90
19999;DHT22;10160;50.926;4.374;2023-05-10T11:28:48;15.00;99.90
19999;DHT22;10160;50.926;4.374;2023-05-10T11:31:15;15.00;99.90
19999;DHT22;10160;50.926;4.374;2023-05-10T11:36:18;14.70;99.90
19999;DHT22;10160;50.926;4.374;2023-05-10T11:38:44;14.60;99.90
19999;DHT22;10160;50.926;4.374;2023-05-10T11:41:11;14.60;99.90
19999;DHT22;10160;50.926;4.374;2023-05-10T11:43:39;14.50;99.90
19999;DHT22;10160;50.926;4.374;2023-05-10T11:46:09;14.40;99.90
19999;DHT22;10160;50.926;4.374;2023-05-10T11:48:36;14.40;99.90
19999;DHT22;10160;50.926;4.374;2023-05-10T11:51:02;14.60;99.90
19999;DHT22;10160;50.926;4.374;2023-05-10T11:53:32;14.90;99.90
19999;DHT22;10160;50.926;4.374;2023-05-10T11:56:06;15.10;99.90
19999;DHT22;10160;50.926;4.374;2023-05-10T11:58:32;15.20;99.90
19999;DHT22;10160;50.926;4.374;2023-05-10T12:00:59;15.30;99.90
19999;DHT22;10160;50.926;4.374;2023-05-10T12:03:28;15.00;99.90
19999;DHT22;10160;50.926;4.374;2023-05-10T12:05:55;15.00;99.90
19999;DHT22;10160;50.926;4.374;2023-05-10T12:08:23;15.00;99.90
19999;DHT22;10160;50.926;4.374;2023-05-10T12:10:49;14.90;99.90
19999;DHT22;10160;50.926;4.374;2023-05-10T12:13:15;14.90;99.90
19999;DHT22;10160;50.926;4.374;2023-05-10T12:15:43;15.10;99.90
19999;DHT22;10160;50.926;4.374;2023-05-10T12:18:10;15.20;99.90
19999;DHT22;10160;50.926;4.374;2023-05-10T12:20:36;15.30;99.90
19999;DHT22;10160;50.926;4.374;2023-05-10T12:23:02;15.30;99.90
19999;DHT22;10160;50.926;4.374;2023-05-10T12:25:33;15.30;99.90
19999;DHT22;10160;50.926;4.374;2023-05-10T12:28:02;15.30;99.90
19999;DHT22;10160;50.926;4.374;2023-05-10T12:30:32;15.10;99.90
19999;DHT22;10160;50.926;4.374;2023-05-10T12:33:12;15.20;99.90
19999;DHT22;10160;50.926;4.374;2023-05-10T12:35:46;15.20;99.90
19999;DHT22;10160;50.926;4.374;2023-05-10T12:38:47;15.30;99.90
19999;DHT22;10160;50.926;4.374;2023-05-10T12:41:15;15.20;99.90
19999;DHT22;10160;50.926;4.374;2023-05-10T12:43:41;15.30;99.90
19999;DHT22;10160;50.926;4.374;2023-05-10T12:46:12;15.30;99.90
19999;DHT22;10160;50.926;4.374;2023-05-10T12:48:39;15.70;99.90
19999;DHT22;10160;50.926;4.374;2023-05-10T12:51:05;15.90;99.90
19999;DHT22;10160;50.926;4.374;2023-05-10T12:53:34;15.80;99.90
19999;DHT22;10160;50.926;4.374;2023-05-10T12:56:00;16.00;99.90
19999;DHT22;10160;50.926;4.374;2023-05-10T12:58:26;16.10;99.90
19999;DHT22;10160;50.926;4.374;2023-05-10T13:00:52;16.20;99.90
19999;DHT22;10160;50.926;4.374;2023-05-10T13:03:18;16.40;99.90
19999;DHT22;10160;50.926;4.374;2023-05-10T13:05:43;16.60;99.90
19999;DHT22;10160;50.926;4.374;2023-05-10T13:08:09;16.40;99.90
19999;DHT22;10160;50.926;4.374;2023-05-10T13:10:35;16.40;99.90
19999;DHT22;10160;50.926;4.374;2023-05-10T13:13:00;16.50;99.90
19999;DHT22;10160;50.926;4.374;2023-05-10T13:15:26;16.90;99.90
19999;DHT22;10160;50.926;4.374;2023-05-10T13:17:53;17.00;99.90
19999;DHT22;10160;50.926;4.374;2023-05-10T13:20:19;17.30;99.90
19999;DHT22;10160;50.926;4.374;2023-05-10T13:22:45;17.40;99.90
19999;DHT22;10160;50.926;4.374;2023-05-10T13:25:11;17.40;99.90
19999;DHT22;10160;50.926;4.374;2023-05-10T13:27:39;18.00;99.90
19999;DHT22;10160;50.926;4.374;2023-05-10T13:30:22;18.30;99.90
19999;DHT22;10160;50.926;4.374;2023-05-10T13:32:49;18.10;99.90
19999;DHT22;10160;50.926;4.374;2023-05-10T13:35:15;18.00;99.90
19999;DHT22;10160;50.926;4.374;2023-05-10T13:37:41;17.60;99.90
19999;DHT22;10160;50.926;4.374;2023-05-10T13:40:07;17.50;99.90
19999;DHT22;10160;50.926;4.374;2023-05-10T13:42:33;17.70;99.90
19999;DHT22;10160;50.926;4.374;2023-05-10T13:44:59;17.50;99.90
19999;DHT22;10160;50.926;4.374;2023-05-10T13:47:26;17.50;99.90
19999;DHT22;10160;50.926;4.374;2023-05-10T13:49:52;17.90;99.90
19999;DHT22;10160;50.926;4.374;2023-05-10T13:52:17;17.80;99.90
19999;DHT22;10160;50.926;4.374;2023-05-10T13:54:43;18.00;99.90
19999;DHT22;10160;50.926;4.374;2023-05-10T13:57:09;18.00;99.90
19999;DHT22;10160;50.926;4.374;2023-05-10T13:59:37;17.80;99.90
19999;DHT22;10160;50.926;4.374;2023-05-10T14:02:02;17.70;99.90
19999;DHT22;10160;50.926;4.374;2023-05-10T14:04:29;17.70;99.90
19999;DHT22;10160;50.926;4.374;2023-05-10T14:06:54;17.40;99.90
19999;DHT22;10160;50.926;4.374;2023-05-10T14:09:20;17.20;99.90
19999;DHT22;10160;50.926;4.374;2023-05-10T14:11:46;17.10;99.90
19999;DHT22;10160;50.926;4.374;2023-05-10T14:14:12;17.20;99.90
19999;DHT22;10160;50.926;4.374;2023-05-10T14:16:42;17.40;99.90
19999;DHT22;10160;50.926;4.374;2023-05-10T14:19:08;17.20;99.90
19999;DHT22;10160;50.926;4.374;2023-05-10T14:21:34;17.20;99.90
19999;DHT22;10160;50.926;4.374;2023-05-10T14:24:00;17.20;99.90
19999;DHT22;10160;50.926;4.374;2023-05-10T14:26:26;17.00;99.90
19999;DHT22;10160;50.926;4.374;2023-05-10T14:28:51;16.80;99.90
19999;DHT22;10160;50.926;4.374;2023-05-10T14:31:17;16.90;99.90
19999;DHT22;10160;50.926;4.374;2023-05-10T14:33:48;17.10;99.90
19999;DHT22;10160;50.926;4.374;2023-05-10T14:36:13;17.10;99.90
19999;DHT22;10160;50.926;4.374;2023-05-10T14:38:40;17.20;99.90
19999;DHT22;10160;50.926;4.374;2023-05-10T14:41:05;17.20;99.90
19999;DHT22;10160;50.926;4.374;2023-05-10T14:43:31;17.20;99.90
19999;DHT22;10160;50.926;4.374;2023-05-10T14:45:57;17.30;99.90
19999;DHT22;10160;50.926;4.374;2023-05-10T14:48:23;17.00;99.90
19999;DHT22;10160;50.926;4.374;2023-05-10T14:50:49;17.00;99.90
19999;DHT22;10160;50.926;4.374;2023-05-10T14:53:15;16.60;99.90
19999;DHT22;10160;50.926;4.374;2023-05-10T14:55:41;16.60;99.90
19999;DHT22;10160;50.926;4.374;2023-05-10T14:58:06;16.20;99.90
19999;DHT22;10160;50.926;4.374;2023-05-10T15:00:32;16.30;99.90
19999;DHT22;10160;50.926;4.374;2023-05-10T15:02:58;16.30;99.90
19999;DHT22;10160;50.926;4.374;2023-05-10T15:05:24;16.40;99.90
19999;DHT22;10160;50.926;4.374;2023-05-10T15:07:49;16.30;99.90
19999;DHT22;10160;50.926;4.374;2023-05-10T15:10:15;16.10;99.90
19999;DHT22;10160;50.926;4.374;2023-05-10T15:12:41;16.10;99.90
19999;DHT22;10160;50.926;4.374;2023-05-10T15:15:07;16.00;99.90
19999;DHT22;10160;50.926;4.374;2023-05-10T15:17:33;15.90;99.90
19999;DHT22;10160;50.926;4.374;2023-05-10T15:19:59;15.90;99.90
19999;DHT22;10160;50.926;4.374;2023-05-10T15:22:25;15.50;99.90
19999;DHT22;10160;50.926;4.374;2023-05-10T15:24:51;15.50;99.90
19999;DHT22;10160;50.926;4.374;2023-05-10T15:27:16;15.60;99.90
19999;DHT22;10160;50.926;4.374;2023-05-10T15:29:42;15.50;99.90
19999;DHT22;10160;50.926;4.374;2023-05-10T15:32:08;15.60;99.90
19999;DHT22;10160;50.926;4.374;2023-05-10T15:34:33;15.50;99.90
19999;DHT22;10160;50.926;4.374;2023-05-10T15:36:59;15.40;99.90
19999;DHT22;10160;50.926;4.374;2023-05-10T15:39:25;15.60;99.90
19999;DHT22;10160;50.926;4.374;2023-05-10T15:41:50;15.40;99.90
19999;DHT22;10160;50.926;4.374;2023-05-10T15:44:16;15.50;99.90
19999;DHT22;10160;50.926;4.374;2023-05-10T15:46:42;15.40;99.90
19999;DHT22;10160;50.926;4.374;2023-05-10T15:49:08;15.50;99.90
19999;DHT22;10160;50.926;4.374;2023-05-10T15:51:33;15.40;99.90
19999;DHT22;10160;50.926;4.374;2023-05-10T15:53:59;15.40;99.90
19999;DHT22;10160;50.926;4.374;2023-05-10T15:56:27;15.50;99.90
19999;DHT22;10160;50.926;4.374;2023-05-10T15:58:53;15.60;99.90
19999;DHT22;10160;50.926;4.374;2023-05-10T16:01:19;15.80;99.90
19999;DHT22;10160;50.926;4.374;2023-05-10T16:03:45;15.90;99.90
19999;DHT22;10160;50.926;4.374;2023-05-10T16:06:10;16.10;99.90
19999;DHT22;10160;50.926;4.374;2023-05-10T16:08:36;16.30;99.90